• Join FlightAware (Why Join?)
  • Login
  • US Flag 
03:01PM EDT


 

Airport Tracker/Info


-or-


 

Live Flight TrackerFlight Track Log ✈ N319EE ✈ 02-Oct-2013 ✈ KALB - KHPN

Flight Track Log - Related Links

Times and Time Zones

All times are in EDT time to prevent confusion due to time zone crossing. See the N319EE flight status page for this flight to view local times or setup timezone preferences in your user account.

Time Position Orientation Groundspeed Altitude Reporting Facility
EDT Latitude Longitude Course Direction KTS MPH feet Rate Location/Type
02:21PM 42.8114 -73.7789 28° Northeast 182 209 3,700  Level Boston Center
02:22PM 42.7850 -73.7189 121° Southeast 219 252 5,100 1,320 Climbing Boston Center
02:22PM 42.7789 -73.7131 145° Southeast 234 269 5,100 -120 Level Boston Center
02:23PM 42.7228 -73.6892 163° South 282 325 5,000 -60 Descending Boston Center
02:24PM 42.6497 -73.6964 184° South 260 299 5,000 720 Level Boston Center
02:25PM 42.5975 -73.7122 193° South 232 267 6,500 1,560 Climbing Boston Center
02:26PM 42.5328 -73.7306 192° South 218 251 8,200 1,620 Climbing Boston Center
02:27PM 42.4825 -73.7464 193° South 211 243 9,900 1,680 Climbing Boston Center
02:28PM 42.4197 -73.7619 190° South 211 243 11,700 1,020 Climbing Boston Center
02:29PM 42.3611 -73.7803 193° South 227 261 12,000 120 Climbing Boston Center
02:30PM 42.2839 -73.8039 193° South 253 291 12,000  Level Boston Center
02:31PM 42.2169 -73.8108 184° South 266 306 12,000  Level Boston Center
02:32PM 42.1317 -73.8147 182° South 278 320 12,000  Level Boston Center
02:33PM 42.0564 -73.8158 181° South 273 314 12,000  Level Boston Center
02:34PM 41.9897 -73.8200 183° South 273 314 12,000 -480 Level Boston Center
02:35PM 41.9022 -73.8208 180° South 279 321 11,100 -900 Descending Boston Center
02:36PM 41.8272 -73.8219 181° South 291 335 10,200 -1,140 Descending Boston Center
02:37PM 41.7375 -73.8228 180° South 291 335 8,900 -1,200 Descending Boston Center
02:39PM 41.6450 -73.8515 183° South  Level FlightAware Approximate
02:40PM 41.5333 -73.8500 183° South 250 288 6,000  Level New York TRACON
02:41PM 41.4667 -73.8667 191° South 246 283 5,600 -1,200 Descending New York TRACON
02:42PM 41.4000 -73.8667 180° South 252 290 3,700 -1,320 Descending New York TRACON
02:43PM 41.3500 -73.8000 135° Southeast 239 275 3,000 -360 Descending New York TRACON
02:44PM 41.3000 -73.7667 153° Southeast 233 268 3,000  Level New York TRACON
02:45PM 41.2500 -73.7167 143° Southeast 229 264 3,000  Level New York TRACON
02:46PM 41.2000 -73.6667 143° Southeast 226 260 3,000 -480 Level New York TRACON
02:47PM 41.1333 -73.6333 159° South 224 258 2,100 -540 Descending New York TRACON
02:48PM 41.0833 -73.6167 166° South 213 245 2,000 -120 Descending New York TRACON
02:50PM 41.0000 -73.6500 197° South 157 181 1,900 -420 Descending New York TRACON
02:51PM 41.0333 -73.6833 323° Northwest 145 167 900 -1,020 Descending New York TRACON
02:53PM 41.0667 -73.7000 242° Southwest  Level FlightAware Approximate
03:00PM 41.0669 -73.7076 242° Southwest  Level Estimated